createdAt,value
2019-05-02T00:01:09.775Z,54.90
2019-05-02T00:03:40.759Z,55.83
2019-05-02T00:06:07.432Z,55.21
2019-05-02T00:08:33.186Z,54.62
2019-05-02T00:10:59.118Z,54.73
2019-05-02T00:13:25.164Z,54.67
2019-05-02T00:15:51.524Z,54.57
2019-05-02T00:18:17.572Z,54.67
2019-05-02T00:20:43.623Z,54.72
2019-05-02T00:23:09.673Z,54.49
2019-05-02T00:25:35.638Z,55.36
2019-05-02T00:28:01.594Z,54.86
2019-05-02T00:30:29.933Z,54.79
2019-05-02T00:32:58.301Z,54.39
2019-05-02T00:35:23.424Z,54.82
2019-05-02T00:37:49.370Z,54.56
2019-05-02T00:40:15.319Z,54.34
2019-05-02T00:42:41.368Z,54.40
2019-05-02T00:45:07.622Z,54.44
2019-05-02T00:47:47.622Z,54.33
2019-05-02T00:50:13.135Z,54.44
2019-05-02T00:52:39.184Z,54.43
2019-05-02T00:55:05.335Z,54.39
2019-05-02T00:57:31.384Z,54.24
2019-05-02T00:59:57.843Z,54.10
2019-05-02T01:02:35.917Z,54.16
2019-05-02T01:05:03.311Z,54.09
2019-05-02T01:07:27.888Z,54.14
2019-05-02T01:09:54.144Z,53.95
2019-05-02T01:12:26.505Z,54.05
2019-05-02T01:14:48.187Z,54.15
2019-05-02T01:17:14.544Z,53.95
2019-05-02T01:19:40.593Z,54.22
2019-05-02T01:22:10.422Z,54.15
2019-05-02T01:24:39.872Z,54.00
2019-05-02T01:27:06.321Z,53.97
2019-05-02T01:29:34.151Z,53.79
2019-05-02T01:32:04.547Z,53.51
2019-05-02T01:34:32.438Z,53.57
2019-05-02T01:37:03.271Z,53.32
2019-05-02T01:39:29.333Z,53.40
2019-05-02T01:41:55.383Z,53.28
2019-05-02T01:44:21.741Z,53.30
2019-05-02T01:46:48.096Z,53.12
2019-05-02T01:49:16.937Z,53.22
2019-05-02T01:51:47.079Z,53.41
2019-05-02T01:54:09.946Z,53.36
2019-05-02T01:56:37.664Z,53.36
2019-05-02T01:59:03.681Z,53.46
2019-05-02T02:01:29.591Z,53.44
2019-05-02T02:03:55.583Z,53.49
2019-05-02T02:06:21.641Z,53.35
2019-05-02T02:08:47.702Z,53.54
2019-05-02T02:11:13.755Z,53.60
2019-05-02T02:13:39.825Z,53.65
2019-05-02T02:16:05.946Z,53.54
2019-05-02T02:18:34.077Z,53.49
2019-05-02T02:21:04.912Z,53.58
2019-05-02T02:23:32.855Z,53.61
2019-05-02T02:26:00.748Z,53.74
2019-05-02T02:28:31.992Z,53.61
2019-05-02T02:31:04.845Z,53.76
2019-05-02T02:33:26.101Z,53.98
2019-05-02T02:35:52.595Z,53.69
2019-05-02T02:38:18.612Z,53.67
2019-05-02T02:40:44.661Z,53.79
2019-05-02T02:43:32.480Z,53.71
2019-05-02T02:45:44.586Z,53.86
2019-05-02T02:48:10.606Z,53.83
2019-05-02T02:50:42.838Z,54.05
2019-05-02T02:53:04.311Z,54.69
2019-05-02T02:55:30.331Z,53.69
2019-05-02T02:57:58.594Z,53.56
2019-05-02T03:00:24.017Z,54.69
2019-05-02T03:02:50.187Z,54.13
2019-05-02T03:05:18.896Z,53.52
2019-05-02T03:07:43.829Z,54.21
2019-05-02T03:10:09.855Z,53.89
2019-05-02T03:12:41.396Z,53.82
2019-05-02T03:15:21.101Z,53.41
2019-05-02T03:17:43.993Z,53.49
2019-05-02T03:20:09.979Z,53.56
2019-05-02T03:22:41.959Z,53.49
2019-05-02T03:25:03.915Z,53.82
2019-05-02T03:27:37.134Z,53.62
2019-05-02T03:29:57.551Z,53.59
2019-05-02T03:32:33.018Z,53.35
2019-05-02T03:34:53.507Z,53.55
2019-05-02T03:37:18.957Z,53.37
2019-05-02T03:39:49.802Z,53.39
2019-05-02T03:42:12.688Z,53.19
2019-05-02T03:44:38.636Z,53.45
2019-05-02T03:47:05.005Z,53.41
2019-05-02T03:49:31.155Z,53.29
2019-05-02T03:52:02.781Z,53.25
2019-05-02T03:54:27.973Z,53.69
2019-05-02T03:56:53.916Z,53.37
2019-05-02T03:59:19.863Z,53.27
2019-05-02T04:01:45.912Z,52.86
2019-05-02T04:04:14.022Z,53.04
2019-05-02T04:06:39.648Z,52.97
2019-05-02T04:09:06.006Z,52.67
2019-05-02T04:11:38.343Z,52.22
2019-05-02T04:13:59.581Z,52.30
2019-05-02T04:16:26.201Z,52.10
2019-05-02T04:18:56.106Z,53.00
2019-05-02T04:21:24.401Z,51.82
2019-05-02T04:23:47.953Z,51.77
2019-05-02T04:26:14.558Z,52.01
2019-05-02T04:28:45.617Z,51.87
2019-05-02T04:31:08.586Z,51.81
2019-05-02T04:33:36.537Z,52.28
2019-05-02T04:36:13.600Z,52.71
2019-05-02T04:38:41.718Z,52.55
2019-05-02T04:40:59.142Z,52.12
2019-05-02T04:43:28.582Z,52.07
2019-05-02T04:45:57.453Z,51.66
2019-05-02T04:48:20.671Z,52.32
2019-05-02T04:50:48.236Z,53.13
2019-05-02T04:53:14.363Z,53.00
2019-05-02T04:55:40.413Z,52.31
2019-05-02T04:58:08.383Z,51.94
2019-05-02T05:00:34.072Z,51.63
2019-05-02T05:03:00.405Z,51.77
2019-05-02T05:05:31.019Z,51.82
2019-05-02T05:07:54.096Z,52.47
2019-05-02T05:10:19.970Z,53.19
2019-05-02T05:12:47.889Z,53.36
2019-05-02T05:15:33.752Z,52.25
2019-05-02T05:17:41.446Z,52.63
2019-05-02T05:20:14.146Z,52.79
2019-05-02T05:22:36.470Z,51.90
2019-05-02T05:25:07.503Z,51.92
2019-05-02T05:27:33.652Z,51.51
2019-05-02T05:30:08.457Z,51.71
2019-05-02T05:32:28.179Z,52.23
2019-05-02T05:34:54.505Z,51.93
2019-05-02T05:37:20.531Z,52.93
2019-05-02T05:39:48.780Z,52.43
2019-05-02T05:42:14.486Z,51.51
2019-05-02T05:44:40.433Z,51.84
2019-05-02T05:47:07.360Z,52.14
2019-05-02T05:49:33.456Z,52.95
2019-05-02T05:52:02.961Z,53.05
2019-05-02T05:54:28.295Z,52.06
2019-05-02T05:56:54.991Z,51.76
2019-05-02T05:59:22.299Z,52.97
2019-05-02T06:01:51.534Z,53.03
2019-05-02T06:04:19.467Z,53.42
2019-05-02T06:06:44.726Z,53.15
2019-05-02T06:09:13.606Z,52.99
2019-05-02T06:11:38.314Z,53.18
2019-05-02T06:14:04.341Z,52.82
2019-05-02T06:16:30.652Z,52.19
2019-05-02T06:18:58.646Z,52.42
2019-05-02T06:21:24.508Z,52.84
2019-05-02T06:23:50.694Z,52.87
2019-05-02T06:26:16.577Z,53.33
2019-05-02T06:28:43.259Z,52.11
2019-05-02T06:31:09.403Z,52.29
2019-05-02T06:33:35.431Z,52.95
2019-05-02T06:36:02.505Z,51.33
2019-05-02T06:38:28.661Z,51.69
2019-05-02T06:40:54.716Z,52.20
2019-05-02T06:43:20.783Z,53.08
2019-05-02T06:45:46.853Z,52.38
2019-05-02T06:48:16.878Z,52.10
2019-05-02T06:50:40.769Z,51.36
2019-05-02T06:53:09.747Z,51.74
2019-05-02T06:55:36.581Z,51.78
2019-05-02T06:58:05.735Z,52.65
2019-05-02T07:00:38.415Z,51.35
2019-05-02T07:02:57.832Z,51.53
2019-05-02T07:05:27.228Z,52.23
2019-05-02T07:07:51.902Z,51.33
2019-05-02T07:10:20.049Z,51.27
2019-05-02T07:12:46.160Z,51.58
2019-05-02T07:15:33.525Z,51.84
2019-05-02T07:18:05.420Z,52.87
2019-05-02T07:20:29.967Z,51.72
2019-05-02T07:22:56.248Z,51.07
2019-05-02T07:25:22.303Z,51.44
2019-05-02T07:27:48.357Z,52.20
2019-05-02T07:30:15.636Z,51.73
2019-05-02T07:32:41.709Z,51.38
2019-05-02T07:35:07.693Z,50.91
2019-05-02T07:37:33.707Z,51.38
2019-05-02T07:39:59.600Z,51.77
2019-05-02T07:42:25.502Z,51.33
2019-05-02T07:44:51.380Z,51.21
2019-05-02T07:47:17.396Z,51.08
2019-05-02T07:49:43.344Z,51.67
2019-05-02T07:52:09.300Z,51.69
2019-05-02T07:54:35.352Z,50.84
2019-05-02T07:57:02.432Z,52.19
2019-05-02T07:59:28.738Z,51.79
2019-05-02T08:01:54.738Z,51.17
2019-05-02T08:04:20.789Z,51.61
2019-05-02T08:06:46.769Z,52.52
2019-05-02T08:09:12.888Z,52.10
2019-05-02T08:11:38.938Z,52.07
2019-05-02T08:14:04.995Z,52.66
2019-05-02T08:16:30.942Z,51.53
2019-05-02T08:19:01.299Z,51.52
2019-05-02T08:21:32.636Z,52.38
2019-05-02T08:24:02.071Z,52.41
2019-05-02T08:26:24.005Z,52.28
2019-05-02T08:28:53.157Z,52.17
2019-05-02T08:31:20.923Z,52.59
2019-05-02T08:33:46.876Z,52.07
2019-05-02T08:36:12.860Z,53.08
2019-05-02T08:38:38.871Z,52.97
2019-05-02T08:41:04.830Z,53.15
2019-05-02T08:43:30.683Z,52.70
2019-05-02T08:45:56.939Z,53.15
2019-05-02T08:48:23.302Z,52.81
2019-05-02T08:50:49.362Z,53.19
2019-05-02T08:53:19.861Z,52.95
2019-05-02T08:55:45.349Z,53.17
2019-05-02T08:58:14.595Z,53.51
2019-05-02T09:00:39.560Z,53.20
2019-05-02T09:03:05.673Z,53.67
2019-05-02T09:05:31.817Z,52.64
2019-05-02T09:07:59.736Z,53.20
2019-05-02T09:10:25.694Z,52.66
2019-05-02T09:12:52.081Z,52.96
2019-05-02T09:15:18.111Z,53.08
2019-05-02T09:17:51.668Z,53.12
2019-05-02T09:20:18.787Z,52.87
2019-05-02T09:22:41.781Z,53.78
2019-05-02T09:25:07.632Z,53.70
2019-05-02T09:27:34.091Z,53.84
2019-05-02T09:30:02.346Z,53.41
2019-05-02T09:32:28.545Z,54.00
2019-05-02T09:34:56.750Z,54.21
2019-05-02T09:37:22.759Z,54.39
2019-05-02T09:39:49.153Z,54.06
2019-05-02T09:42:17.393Z,54.36
2019-05-02T09:44:43.299Z,54.32
2019-05-02T09:47:12.839Z,54.05
2019-05-02T09:49:41.709Z,54.10
2019-05-02T09:52:06.575Z,54.01
2019-05-02T09:54:36.946Z,54.02
2019-05-02T09:57:00.337Z,54.02
2019-05-02T09:59:33.143Z,54.68
2019-05-02T10:01:59.548Z,54.51
2019-05-02T10:04:25.573Z,54.70
2019-05-02T10:06:52.486Z,54.62
2019-05-02T10:09:23.287Z,54.56
2019-05-02T10:11:46.593Z,54.39
2019-05-02T10:14:12.946Z,54.67
2019-05-02T10:16:38.993Z,54.55
2019-05-02T10:19:09.557Z,54.79
2019-05-02T10:21:32.732Z,54.72
2019-05-02T10:24:00.850Z,54.39
2019-05-02T10:26:26.584Z,54.78
2019-05-02T10:28:53.337Z,54.15
2019-05-02T10:31:21.691Z,54.63
2019-05-02T10:33:47.276Z,53.49
2019-05-02T10:36:19.531Z,54.52
2019-05-02T10:38:42.743Z,54.75
2019-05-02T10:41:08.630Z,54.64
2019-05-02T10:43:34.508Z,54.64
2019-05-02T10:46:02.349Z,54.72
2019-05-02T10:48:33.155Z,54.82
2019-05-02T10:51:17.936Z,54.40
2019-05-02T10:53:47.161Z,54.62
2019-05-02T10:56:11.849Z,54.42
2019-05-02T10:58:37.835Z,54.85
2019-05-02T11:01:03.885Z,54.83
2019-05-02T11:03:38.164Z,54.64
2019-05-02T11:06:07.694Z,54.88
2019-05-02T11:08:36.763Z,54.64
2019-05-02T11:11:02.350Z,54.33
2019-05-02T11:13:42.641Z,54.15
2019-05-02T11:16:13.202Z,53.67
2019-05-02T11:18:59.735Z,54.06
2019-05-02T11:21:25.781Z,53.97
2019-05-02T11:23:52.581Z,53.78
2019-05-02T11:26:21.536Z,53.90
2019-05-02T11:28:46.421Z,54.04
2019-05-02T11:31:12.488Z,54.10
2019-05-02T11:33:38.552Z,54.00
2019-05-02T11:36:04.579Z,53.92
2019-05-02T11:38:30.848Z,54.01
2019-05-02T11:40:57.095Z,54.14
2019-05-02T11:43:23.456Z,54.08
2019-05-02T11:45:55.831Z,54.04
2019-05-02T11:48:19.728Z,54.33
2019-05-02T11:50:44.992Z,54.23
2019-05-02T11:53:24.897Z,54.26
2019-05-02T11:55:41.313Z,54.27
2019-05-02T11:58:08.331Z,54.30
2019-05-02T12:00:34.502Z,54.25
2019-05-02T12:03:02.418Z,54.35
2019-05-02T12:05:35.715Z,54.18
2019-05-02T12:08:06.773Z,54.23
2019-05-02T12:10:34.827Z,54.30
2019-05-02T12:12:58.697Z,54.41
2019-05-02T12:15:24.945Z,54.37
2019-05-02T12:17:51.674Z,54.23
2019-05-02T12:20:18.091Z,54.23
2019-05-02T12:22:44.141Z,54.53
2019-05-02T12:25:12.465Z,54.55
2019-05-02T12:27:37.829Z,54.63
2019-05-02T12:30:04.290Z,54.44
2019-05-02T12:32:30.304Z,54.37
2019-05-02T12:34:56.349Z,54.35
2019-05-02T12:37:22.282Z,54.28
2019-05-02T12:39:48.440Z,54.49
2019-05-02T12:42:14.657Z,54.53
2019-05-02T12:44:42.488Z,54.68
2019-05-02T12:47:08.687Z,54.36
2019-05-02T12:49:34.733Z,54.38
2019-05-02T12:52:01.769Z,54.41
2019-05-02T12:54:32.411Z,54.67
2019-05-02T12:57:02.051Z,54.60
2019-05-02T12:59:32.086Z,54.45
2019-05-02T13:01:59.757Z,54.54
2019-05-02T13:04:26.211Z,54.76
2019-05-02T13:06:53.142Z,54.82
2019-05-02T13:09:19.336Z,54.79
2019-05-02T13:11:52.860Z,54.79
2019-05-02T13:14:22.393Z,55.05
2019-05-02T13:16:53.433Z,54.95
2019-05-02T13:19:16.331Z,54.92
2019-05-02T13:22:02.245Z,54.68
2019-05-02T13:24:33.323Z,54.74
2019-05-02T13:27:01.037Z,54.63
2019-05-02T13:29:27.073Z,54.87
2019-05-02T13:31:58.416Z,54.78
2019-05-02T13:34:29.223Z,54.92
2019-05-02T13:36:57.834Z,54.82
2019-05-02T13:39:25.532Z,54.87
2019-05-02T13:41:52.187Z,54.92
2019-05-02T13:44:29.413Z,55.03
2019-05-02T13:46:55.865Z,54.77
2019-05-02T13:49:22.072Z,54.77
2019-05-02T13:51:48.282Z,54.85
2019-05-02T13:54:14.347Z,54.95
2019-05-02T13:56:52.784Z,55.09
2019-05-02T13:59:21.861Z,54.92
2019-05-02T14:01:47.492Z,54.61
2019-05-02T14:04:14.949Z,54.20
2019-05-02T14:06:42.107Z,54.51
2019-05-02T14:09:18.400Z,54.87
2019-05-02T14:11:49.580Z,54.67
2019-05-02T14:14:15.629Z,54.87
2019-05-02T14:16:42.053Z,55.14
2019-05-02T14:19:08.034Z,55.00
2019-05-02T14:21:34.086Z,54.86
2019-05-02T14:24:01.730Z,54.66
2019-05-02T14:26:30.548Z,54.76
2019-05-02T14:28:55.821Z,54.70
2019-05-02T14:31:21.870Z,54.72
2019-05-02T14:34:06.449Z,54.75
2019-05-02T14:36:32.611Z,54.84
2019-05-02T14:38:58.971Z,54.90
2019-05-02T14:41:30.079Z,54.90
2019-05-02T14:43:55.584Z,54.97
2019-05-02T14:46:22.289Z,54.89
2019-05-02T14:48:48.514Z,54.87
2019-05-02T14:51:16.702Z,54.90
2019-05-02T14:53:43.009Z,54.82
2019-05-02T14:56:12.497Z,54.42
2019-05-02T14:58:39.144Z,55.16
2019-05-02T15:01:05.553Z,55.08
2019-05-02T15:03:32.479Z,55.19
2019-05-02T15:06:04.064Z,55.28
2019-05-02T15:08:29.274Z,55.11
2019-05-02T15:10:56.681Z,55.23
2019-05-02T15:13:23.005Z,55.19
2019-05-02T15:15:49.258Z,55.21
2019-05-02T15:18:17.525Z,55.46
2019-05-02T15:20:42.965Z,55.41
2019-05-02T15:23:14.474Z,55.54
2019-05-02T15:25:39.562Z,55.57
2019-05-02T15:28:07.756Z,55.43
2019-05-02T15:30:37.259Z,55.62
2019-05-02T15:33:04.070Z,55.38
2019-05-02T15:35:37.708Z,55.42
2019-05-02T15:38:06.695Z,55.37
2019-05-02T15:43:04.510Z,55.34
2019-05-02T15:45:24.941Z,55.70
2019-05-02T15:47:52.596Z,55.51
2019-05-02T15:50:22.017Z,55.49
2019-05-02T15:53:09.693Z,55.39
2019-05-02T15:55:32.413Z,55.49
2019-05-02T15:57:59.109Z,55.31
2019-05-02T16:00:27.081Z,55.54
2019-05-02T16:02:56.222Z,55.43
2019-05-02T16:05:22.200Z,55.44
2019-05-02T16:07:48.934Z,55.49
2019-05-02T16:10:14.988Z,55.47
2019-05-02T16:12:42.707Z,55.46
2019-05-02T16:15:13.587Z,55.47
2019-05-02T16:17:36.935Z,55.53
2019-05-02T16:20:10.568Z,55.36
2019-05-02T16:22:38.302Z,55.49
2019-05-02T16:25:03.997Z,55.33
2019-05-02T16:27:44.373Z,55.52
2019-05-02T16:30:12.813Z,55.52
2019-05-02T16:32:42.048Z,55.55
2019-05-02T16:35:13.566Z,55.52
2019-05-02T16:37:35.888Z,55.51
2019-05-02T16:40:02.532Z,55.60
2019-05-02T16:42:28.807Z,55.76
2019-05-02T16:44:55.023Z,55.56
2019-05-02T16:47:28.254Z,55.58
2019-05-02T16:49:56.412Z,55.58
2019-05-02T16:52:22.343Z,55.59
2019-05-02T16:54:48.302Z,55.52
2019-05-02T16:57:17.428Z,55.60
2019-05-02T16:59:42.584Z,55.56
2019-05-02T17:02:09.098Z,55.45
2019-05-02T17:04:35.203Z,55.46
2019-05-02T17:07:05.762Z,55.70
2019-05-02T17:09:52.053Z,55.96
2019-05-02T17:12:18.246Z,56.03
2019-05-02T17:14:51.526Z,56.19
2019-05-02T17:17:13.934Z,55.95
2019-05-02T17:19:40.089Z,55.91
2019-05-02T17:22:06.446Z,55.81
2019-05-02T17:24:32.524Z,55.89
2019-05-02T17:26:59.127Z,55.98
2019-05-02T17:29:25.200Z,55.96
2019-05-02T17:31:57.337Z,56.01
2019-05-02T17:34:23.050Z,56.10
2019-05-02T17:36:47.103Z,55.73
2019-05-02T17:39:13.250Z,55.92
2019-05-02T17:41:44.006Z,55.91
2019-05-02T17:44:07.101Z,55.91
2019-05-02T17:46:33.466Z,55.77
2019-05-02T17:48:59.384Z,55.89
2019-05-02T17:51:33.999Z,55.86
2019-05-02T17:54:00.559Z,55.90
2019-05-02T17:56:26.434Z,55.85
2019-05-02T17:58:54.209Z,56.07
2019-05-02T18:01:34.885Z,56.13
2019-05-02T18:03:59.203Z,56.07
2019-05-02T18:06:32.931Z,56.20
2019-05-02T18:08:55.255Z,56.08
2019-05-02T18:11:22.304Z,56.13
2019-05-02T18:13:48.305Z,56.07
2019-05-02T18:16:16.603Z,55.93
2019-05-02T18:18:43.733Z,56.14
2019-05-02T18:21:09.537Z,56.10
2019-05-02T18:23:35.429Z,56.24
2019-05-02T18:26:02.736Z,56.39
2019-05-02T18:28:29.221Z,56.46
2019-05-02T18:30:57.089Z,56.38
2019-05-02T18:33:22.889Z,56.26
2019-05-02T18:35:49.269Z,56.37
2019-05-02T18:38:15.795Z,55.99
2019-05-02T18:40:43.388Z,55.89
2019-05-02T18:43:09.368Z,56.10
2019-05-02T18:45:35.250Z,55.99
2019-05-02T18:48:05.189Z,56.11
2019-05-02T18:50:29.171Z,56.08
2019-05-02T18:52:55.410Z,56.25
2019-05-02T18:55:23.223Z,56.18
2019-05-02T18:57:49.366Z,56.22
2019-05-02T19:00:15.647Z,56.39
2019-05-02T19:02:42.472Z,56.15
2019-05-02T19:05:13.485Z,56.00
2019-05-02T19:07:36.079Z,56.00
2019-05-02T19:10:07.144Z,55.98
2019-05-02T19:12:32.829Z,56.02
2019-05-02T19:15:05.388Z,56.13
2019-05-02T19:17:26.477Z,56.01
2019-05-02T19:19:52.714Z,56.16
2019-05-02T19:22:18.635Z,55.97
2019-05-02T19:24:44.494Z,55.92
2019-05-02T19:27:12.807Z,55.98
2019-05-02T19:29:39.582Z,55.90
2019-05-02T19:32:06.267Z,56.05
2019-05-02T19:34:32.474Z,56.14
2019-05-02T19:37:02.863Z,56.00
2019-05-02T19:39:26.589Z,55.92
2019-05-02T19:41:52.907Z,56.08
2019-05-02T19:44:21.535Z,56.06
2019-05-02T19:46:46.444Z,56.14
2019-05-02T19:49:15.966Z,56.09
2019-05-02T19:51:40.070Z,56.02
2019-05-02T19:54:07.145Z,55.85
2019-05-02T19:56:43.135Z,55.84
2019-05-02T19:59:02.711Z,55.82
2019-05-02T20:01:28.821Z,55.80
2019-05-02T20:03:56.776Z,55.85
2019-05-02T20:06:22.488Z,55.82
2019-05-02T20:08:48.566Z,55.64
2019-05-02T20:11:14.560Z,55.73
2019-05-02T20:13:40.859Z,55.80
2019-05-02T20:16:22.453Z,55.71
2019-05-02T20:18:48.525Z,55.66
2019-05-02T20:21:24.237Z,55.76
2019-05-02T20:23:47.726Z,55.85
2019-05-02T20:26:15.394Z,55.82
2019-05-02T20:28:42.239Z,55.75
2019-05-02T20:31:08.424Z,55.98
2019-05-02T20:33:34.487Z,55.86
2019-05-02T20:36:01.816Z,55.99
2019-05-02T20:38:32.472Z,55.98
2019-05-02T20:40:58.588Z,56.00
2019-05-02T20:43:24.950Z,56.23
2019-05-02T20:45:52.583Z,56.21
2019-05-02T20:48:18.725Z,56.11
2019-05-02T20:50:44.790Z,56.14
2019-05-02T20:53:12.793Z,56.17
2019-05-02T20:55:39.103Z,56.41
2019-05-02T20:58:05.052Z,56.32
2019-05-02T21:00:32.177Z,56.39
2019-05-02T21:03:02.677Z,56.46
2019-05-02T21:05:39.807Z,56.48
2019-05-02T21:08:10.459Z,56.36
2019-05-02T21:10:38.368Z,56.54
2019-05-02T21:13:04.840Z,56.51
2019-05-02T21:15:32.385Z,56.35
2019-05-02T21:18:02.280Z,56.39
2019-05-02T21:20:29.403Z,56.37
2019-05-02T21:22:55.447Z,56.44
2019-05-02T21:25:23.222Z,56.26
2019-05-02T21:27:49.185Z,56.18
2019-05-02T21:30:17.082Z,56.39
2019-05-02T21:32:43.131Z,56.21
2019-05-02T21:35:09.488Z,56.52
2019-05-02T21:37:35.541Z,56.46
2019-05-02T21:40:02.762Z,56.50
2019-05-02T21:42:28.976Z,56.32
2019-05-02T21:44:55.017Z,56.26
2019-05-02T21:47:22.527Z,56.49
2019-05-02T21:49:52.384Z,56.57
2019-05-02T21:52:22.918Z,56.71
2019-05-02T21:54:52.182Z,56.62
2019-05-02T21:57:19.434Z,56.63
2019-05-02T21:59:45.489Z,56.46
2019-05-02T22:02:12.680Z,56.59
2019-05-02T22:04:38.747Z,56.85
2019-05-02T22:07:04.695Z,56.89
2019-05-02T22:09:32.197Z,56.84
2019-05-02T22:12:01.035Z,56.79
2019-05-02T22:14:26.907Z,56.92
2019-05-02T22:16:53.167Z,56.77
2019-05-02T22:19:19.210Z,57.08
2019-05-02T22:21:45.174Z,56.67
2019-05-02T22:24:12.347Z,56.62
2019-05-02T22:26:38.825Z,56.77
2019-05-02T22:29:04.880Z,56.63
2019-05-02T22:31:32.345Z,56.39
2019-05-02T22:34:02.159Z,56.59
2019-05-02T22:36:32.440Z,56.79
2019-05-02T22:39:01.967Z,56.88
2019-05-02T22:41:29.158Z,56.75
2019-05-02T22:43:55.466Z,56.65
2019-05-02T22:46:42.890Z,56.77
2019-05-02T22:49:08.500Z,56.70
2019-05-02T22:51:34.561Z,56.72
2019-05-02T22:54:02.848Z,56.75
2019-05-02T22:56:31.691Z,56.72
2019-05-02T22:58:57.960Z,56.73
2019-05-02T23:01:24.013Z,56.41
2019-05-02T23:03:50.060Z,56.88
2019-05-02T23:06:16.451Z,56.46
2019-05-02T23:08:43.503Z,56.33
2019-05-02T23:11:09.659Z,56.70
2019-05-02T23:13:36.016Z,56.53
2019-05-02T23:16:02.894Z,55.62
2019-05-02T23:18:29.049Z,56.79
2019-05-02T23:20:55.411Z,56.71
2019-05-02T23:23:21.575Z,56.48
2019-05-02T23:26:06.051Z,56.60
2019-05-02T23:28:33.942Z,56.64
2019-05-02T23:30:59.875Z,56.98
2019-05-02T23:33:29.852Z,56.66
2019-05-02T23:35:55.902Z,55.77
2019-05-02T23:38:21.965Z,54.84
2019-05-02T23:40:48.335Z,55.20
2019-05-02T23:43:14.388Z,56.31
2019-05-02T23:45:42.182Z,55.13
2019-05-02T23:48:08.533Z,54.68
2019-05-02T23:50:34.588Z,55.16
2019-05-02T23:53:02.298Z,55.63
2019-05-02T23:55:32.227Z,55.36
2019-05-02T23:58:02.893Z,55.84
